Accueil
METAR-TAF:

METAR-TAF

Aéroports :

Hooper Bay, Alaska, États-Unis

latitude: 61-31N, longitude: 166-08W, altitude: 5 m

Observation

Le bulletin a été fait il y a 45 minutes, à 10:56 UTC
Vent 13 kt de est
Température -22°C
Humidité 84%
Pression 1006 hPa
Visibilité: 16.1 km
Ciel clair

METAR: PAHP 181056Z AUTO 08013KT 10SM CLR M22/M24 A2970 RMK AO2 SLP056 T12171244 FZRANO

Heure: 02:41 (11:41 UTC)


TAF: absent

Observations et prévisions météorologiques de plus de 4000 aéroports (messages METAR et TAF).

Les stations disponibles sont représentées par des disques jaunes et rouges sur la carte.

Passer la souris dessus pour voir le nom de la station.

Cliquer dessus pour voir les observations et prévisions météorologiques.

Pour changer de carte: cliquez sur les boutons verts avec une croix noire pour zoomer, sur le bouton vert avec un tiret pour effectuer un zoom arrière, ou sur les flèches vertes pour les cartes adjacentes.


METAR-TAF: